Time;durP1;ratioP1;P1;durP2;ratioP2;P2;SDS_P1;SDS_P2;PMS_P1;PMS_P2;Temp;Humidity;BMP_temperature;BMP_pressure;BME280_temperature;BME280_humidity;BME280_pressure;Samples;Min_cycle;Max_cycle;Signal;HPM_P1;HPM_P2
2023/01/26 11:53:39;;;;;;;15.67;5.73;;;5.10;99.90;;;;;;4971522;23;20331;-73
2023/01/26 11:56:31;;;;;;;17.93;5.77;;;5.10;99.90;;;;;;4956326;29;20655;-73
2023/01/26 11:59:03;;;;;;;18.53;5.57;;;5.10;99.90;;;;;;4956691;29;20211;-73
2023/01/26 12:01:35;;;;;;;18.17;5.87;;;5.10;99.90;;;;;;4956760;29;20212;-73
2023/01/26 12:04:01;;;;;;;18.53;5.00;;;5.10;99.90;;;;;;4948754;29;20236;-70
2023/01/26 12:06:35;;;;;;;16.93;4.97;;;5.20;99.90;;;;;;4935495;29;20221;-72
2023/01/26 12:09:09;;;;;;;16.80;5.90;;;5.30;99.90;;;;;;4935680;29;20571;-74
2023/01/26 12:11:42;;;;;;;24.30;5.80;;;5.40;99.90;;;;;;4935766;29;20304;-73
2023/01/26 12:14:17;;;;;;;19.70;5.50;;;5.40;99.90;;;;;;4935152;29;20217;-76
2023/01/26 12:16:59;;;;;;;18.47;5.63;;;5.40;99.90;;;;;;4935436;29;20220;-73
2023/01/26 12:19:39;;;;;;;20.17;6.87;;;5.50;99.90;;;;;;4935175;29;20235;-73
2023/01/26 12:22:14;;;;;;;23.03;7.10;;;5.50;99.90;;;;;;4935623;29;20208;-72
2023/01/26 12:24:47;;;;;;;21.90;6.70;;;5.50;99.90;;;;;;4935313;29;20240;-74
2023/01/26 12:27:21;;;;;;;26.67;7.83;;;5.60;99.90;;;;;;4935879;29;20217;-75
2023/01/26 12:29:52;;;;;;;21.90;7.20;;;5.60;99.90;;;;;;4933812;29;20718;-74
2023/01/26 12:32:21;;;;;;;16.97;5.73;;;5.70;99.90;;;;;;4935423;29;20209;-75
2023/01/26 12:34:48;;;;;;;20.60;5.43;;;5.80;99.90;;;;;;4936123;29;20616;-74
2023/01/26 12:37:42;;;;;;;14.80;6.43;;;5.90;99.90;;;;;;4936905;29;20205;-72
2023/01/26 12:40:22;;;;;;;19.33;7.20;;;6.00;99.90;;;;;;4936478;29;20284;-73
2023/01/26 12:42:56;;;;;;;21.67;7.07;;;6.10;99.90;;;;;;4937124;29;20573;-74
2023/01/26 12:45:28;;;;;;;18.97;6.80;;;6.20;99.90;;;;;;4936784;29;20212;-73
2023/01/26 12:48:02;;;;;;;29.20;7.53;;;6.20;99.90;;;;;;4936923;29;20209;-74
2023/01/26 12:50:38;;;;;;;25.80;6.80;;;6.30;99.90;;;;;;4936643;29;20652;-74
2023/01/26 12:53:12;;;;;;;20.73;6.93;;;6.40;99.90;;;;;;4934987;29;20238;-74
2023/01/26 12:55:45;;;;;;;24.07;7.13;;;6.60;99.90;;;;;;4940242;29;20212;-74
2023/01/26 12:58:19;;;;;;;31.57;7.03;;;6.60;99.90;;;;;;4942994;29;20210;-73
2023/01/26 13:00:53;;;;;;;30.17;6.70;;;6.70;99.90;;;;;;4936022;29;20231;-73
2023/01/26 13:03:24;;;;;;;26.20;6.73;;;6.80;99.90;;;;;;4938693;29;20228;-73
2023/01/26 13:05:57;;;;;;;21.47;6.17;;;6.90;99.90;;;;;;4935856;29;20219;-73
2023/01/26 13:08:52;;;;;;;23.60;7.03;;;7.10;99.90;;;;;;4942646;29;20204;-72
2023/01/26 13:11:46;;;;;;;23.37;6.27;;;7.10;99.90;;;;;;4937628;29;20568;-74
2023/01/26 13:14:36;;;;;;;20.97;5.70;;;7.20;99.90;;;;;;4936908;29;20213;-73
2023/01/26 13:17:41;;;;;;;26.70;6.17;;;7.10;99.90;;;;;;4937977;29;20212;-72
2023/01/26 13:20:40;;;;;;;24.50;5.90;;;7.20;99.90;;;;;;4935421;29;20235;-73
2023/01/26 13:23:40;;;;;;;20.43;5.90;;;7.40;99.90;;;;;;4944902;29;20236;-72
2023/01/26 13:26:18;;;;;;;24.77;5.93;;;7.60;99.90;;;;;;4938396;29;20213;-71
2023/01/26 13:28:48;;;;;;;28.37;6.50;;;7.60;99.90;;;;;;4935780;29;20215;-72
2023/01/26 13:31:31;;;;;;;17.17;5.73;;;7.80;99.90;;;;;;4937249;29;20239;-73
2023/01/26 13:34:01;;;;;;;20.17;5.53;;;7.90;99.90;;;;;;4935853;29;20545;-72
2023/01/26 13:36:34;;;;;;;23.77;6.33;;;7.90;99.90;;;;;;4937423;29;20211;-73
2023/01/26 13:39:06;;;;;;;19.93;5.07;;;8.00;99.90;;;;;;4937786;29;20296;-73
2023/01/26 13:41:32;;;;;;;18.03;5.13;;;8.10;99.90;;;;;;4935457;29;20586;-72
2023/01/26 13:44:10;;;;;;;19.50;5.57;;;8.10;99.90;;;;;;4937775;29;20238;-72
2023/01/26 13:46:39;;;;;;;17.23;4.60;;;8.20;99.90;;;;;;4936733;29;20208;-72
2023/01/26 13:49:24;;;;;;;17.57;4.13;;;8.30;99.90;;;;;;4935392;29;20306;-71
2023/01/26 13:51:50;;;;;;;19.53;4.37;;;8.30;99.90;;;;;;4933635;29;20563;-72
2023/01/26 13:54:18;;;;;;;16.53;3.70;;;8.40;99.90;;;;;;4935041;29;20217;-73
2023/01/26 13:57:01;;;;;;;12.03;2.93;;;8.40;99.90;;;;;;4933628;29;20580;-71
2023/01/26 13:59:29;;;;;;;8.97;2.57;;;8.30;99.90;;;;;;4954870;28;20283;-77
2023/01/26 14:01:57;;;;;;;15.40;2.57;;;8.20;99.90;;;;;;4953691;29;20582;-77
2023/01/26 14:04:25;;;;;;;10.67;1.90;;;8.00;99.90;;;;;;4953921;29;20231;-74
2023/01/26 14:06:56;;;;;;;7.67;2.20;;;8.00;99.90;;;;;;4947119;29;20672;-78
2023/01/26 14:09:24;;;;;;;10.97;1.80;;;8.00;99.90;;;;;;4935250;29;20280;-74
2023/01/26 14:11:58;;;;;;;9.13;1.47;;;8.00;99.90;;;;;;4933975;29;20220;-69
2023/01/26 14:14:27;;;;;;;11.47;1.57;;;7.90;99.90;;;;;;4942881;29;20246;-69
2023/01/26 14:16:57;;;;;;;12.67;1.53;;;8.00;99.90;;;;;;4946518;29;20205;-68
2023/01/26 14:19:24;;;;;;;5.70;0.97;;;7.80;99.90;;;;;;4933840;29;20232;-69
2023/01/26 14:21:52;;;;;;;14.50;1.30;;;7.70;99.90;;;;;;4934204;29;20572;-70
2023/01/26 14:24:26;;;;;;;7.37;1.20;;;7.80;99.90;;;;;;4933926;29;20730;-69
2023/01/26 14:26:53;;;;;;;2.63;0.90;;;7.90;99.90;;;;;;4939094;29;20683;-76
2023/01/26 14:29:22;;;;;;;7.70;1.10;;;8.00;99.90;;;;;;4933277;29;20782;-69
2023/01/26 14:31:51;;;;;;;6.33;0.90;;;8.00;99.90;;;;;;4933759;29;20579;-68
2023/01/26 14:34:22;;;;;;;6.10;1.00;;;7.90;99.90;;;;;;4933785;29;20255;-71
2023/01/26 14:36:49;;;;;;;6.53;0.90;;;7.90;99.90;;;;;;4933677;29;20667;-71
2023/01/26 14:39:18;;;;;;;5.37;1.17;;;7.90;99.90;;;;;;4932876;29;20256;-68
2023/01/26 14:41:46;;;;;;;7.37;0.80;;;7.90;99.90;;;;;;4934047;29;20217;-71
2023/01/26 14:44:13;;;;;;;8.27;0.80;;;7.80;99.90;;;;;;4936542;29;20238;-70
2023/01/26 14:46:50;;;;;;;7.20;0.80;;;7.90;99.90;;;;;;4937487;29;20595;-71
2023/01/26 14:49:22;;;;;;;7.50;0.93;;;7.80;99.90;;;;;;4937102;29;20615;-71
2023/01/26 14:51:54;;;;;;;9.53;0.83;;;7.90;99.90;;;;;;4934486;29;20205;-68
2023/01/26 14:54:27;;;;;;;5.07;1.13;;;8.00;99.90;;;;;;4936996;29;20219;-68
2023/01/26 14:56:54;;;;;;;6.60;0.90;;;8.00;99.90;;;;;;4937351;29;20217;-70
2023/01/26 14:59:25;;;;;;;7.13;0.83;;;8.00;99.90;;;;;;4938175;29;20224;-70
2023/01/26 15:02:03;;;;;;;7.83;1.03;;;8.00;99.90;;;;;;4937726;29;20227;-69
2023/01/26 15:04:36;;;;;;;8.00;1.00;;;8.00;99.90;;;;;;4938596;29;20240;-69
2023/01/26 15:07:21;;;;;;;9.43;1.20;;;8.10;99.90;;;;;;4938300;29;20209;-69
2023/01/26 15:09:52;;;;;;;8.70;1.10;;;8.00;99.90;;;;;;4938428;29;20235;-69
2023/01/26 15:12:20;;;;;;;7.50;1.30;;;8.00;99.90;;;;;;4938428;29;20220;-70
2023/01/26 15:14:49;;;;;;;7.40;1.20;;;8.00;99.90;;;;;;4938447;29;20691;-69
2023/01/26 15:17:38;;;;;;;10.33;1.70;;;7.90;99.90;;;;;;4938350;29;20215;-70
2023/01/26 15:20:39;;;;;;;8.50;1.00;;;7.90;99.90;;;;;;4938001;29;20233;-69
2023/01/26 15:23:24;;;;;;;13.77;1.63;;;7.90;99.90;;;;;;4938588;29;20275;-70
2023/01/26 15:25:51;;;;;;;11.57;1.60;;;7.90;99.90;;;;;;4938291;29;20212;-70
2023/01/26 15:28:22;;;;;;;8.20;1.27;;;7.90;99.90;;;;;;4938151;29;20213;-69
2023/01/26 15:30:50;;;;;;;5.93;0.90;;;7.90;99.90;;;;;;4938100;29;20284;-69
2023/01/26 15:33:51;;;;;;;8.30;0.90;;;7.80;99.90;;;;;;4937922;29;20212;-70
2023/01/26 15:36:33;;;;;;;6.93;0.80;;;7.90;99.90;;;;;;4878821;29;20217;-70
2023/01/26 15:39:04;;;;;;;5.03;0.90;;;7.90;99.90;;;;;;4878779;29;20215;-70
2023/01/26 15:41:31;;;;;;;5.87;1.57;;;7.90;99.90;;;;;;4912983;29;20209;-70
2023/01/26 15:43:58;;;;;;;3.37;0.90;;;8.00;99.90;;;;;;4937448;29;20280;-70
2023/01/26 15:46:25;;;;;;;10.13;1.40;;;8.10;99.90;;;;;;4937704;29;20224;-71
2023/01/26 15:48:56;;;;;;;5.40;1.13;;;8.10;99.90;;;;;;4937639;29;20303;-71
2023/01/26 15:51:23;;;;;;;3.60;1.07;;;8.00;99.90;;;;;;4937655;29;20215;-71
2023/01/26 15:53:51;;;;;;;6.27;1.20;;;8.10;99.90;;;;;;4937460;29;20217;-70
2023/01/26 15:56:18;;;;;;;8.37;1.50;;;8.20;99.90;;;;;;4936983;29;20212;-70
2023/01/26 15:58:44;;;;;;;8.63;1.03;;;8.10;99.90;;;;;;4937656;29;20212;-70
2023/01/26 16:01:15;;;;;;;11.70;1.47;;;8.20;99.90;;;;;;4937515;29;20719;-70
2023/01/26 16:03:42;;;;;;;9.60;1.50;;;8.10;99.90;;;;;;4937575;29;20260;-70
2023/01/26 16:06:20;;;;;;;7.00;1.20;;;8.10;99.90;;;;;;4937348;29;20204;-70
2023/01/26 16:08:47;;;;;;;5.63;0.90;;;8.00;99.90;;;;;;4937738;29;20208;-70
2023/01/26 16:11:16;;;;;;;7.47;1.30;;;8.10;99.90;;;;;;4937844;29;20221;-70
2023/01/26 16:13:44;;;;;;;14.47;1.77;;;8.10;99.90;;;;;;4937542;29;20299;-71
2023/01/26 16:16:12;;;;;;;6.43;1.30;;;8.10;99.90;;;;;;4937357;29;20205;-70
2023/01/26 16:18:39;;;;;;;7.37;1.37;;;8.10;99.90;;;;;;4939834;29;20604;-71
2023/01/26 16:21:16;;;;;;;7.07;1.27;;;8.00;99.90;;;;;;4941686;29;20297;-71
2023/01/26 16:23:43;;;;;;;5.40;1.70;;;7.90;99.90;;;;;;4941469;29;20220;-71
2023/01/26 16:26:12;;;;;;;6.73;1.30;;;7.80;99.90;;;;;;4939528;29;20219;-71
2023/01/26 16:28:41;;;;;;;2.83;0.80;;;7.90;99.90;;;;;;4936987;29;20209;-71
2023/01/26 16:31:14;;;;;;;5.70;0.93;;;7.90;99.90;;;;;;4936786;29;20232;-69
2023/01/26 16:33:40;;;;;;;4.97;1.20;;;7.90;99.90;;;;;;4936321;29;20303;-70
2023/01/26 16:36:10;;;;;;;10.43;1.03;;;7.90;99.90;;;;;;4936484;29;20233;-70
2023/01/26 16:38:37;;;;;;;3.60;0.80;;;7.90;99.90;;;;;;4936592;29;20205;-70
2023/01/26 16:41:04;;;;;;;8.10;1.40;;;7.90;99.90;;;;;;4936210;29;20235;-70
2023/01/26 16:43:30;;;;;;;5.87;0.93;;;7.90;99.90;;;;;;4936572;29;20219;-71
2023/01/26 16:45:59;;;;;;;2.27;0.80;;;7.90;99.90;;;;;;4936419;29;20237;-70
2023/01/26 16:48:27;;;;;;;1.70;0.57;;;7.90;99.90;;;;;;4936668;29;20624;-71
2023/01/26 16:50:54;;;;;;;3.20;0.87;;;7.80;99.90;;;;;;4936494;29;20708;-71
2023/01/26 16:53:25;;;;;;;5.90;1.10;;;7.90;99.90;;;;;;4936344;29;20217;-71
2023/01/26 16:55:52;;;;;;;6.70;0.90;;;7.90;99.90;;;;;;4936363;29;20216;-71
2023/01/26 16:58:20;;;;;;;6.13;1.00;;;7.90;99.90;;;;;;4936100;29;20209;-70
2023/01/26 17:00:47;;;;;;;4.50;1.23;;;7.90;99.90;;;;;;4935981;29;20236;-70
2023/01/26 17:03:15;;;;;;;4.97;1.30;;;7.80;99.90;;;;;;4936009;29;20215;-69
2023/01/26 17:05:42;;;;;;;4.47;0.90;;;7.80;99.90;;;;;;4936009;29;20241;-70
2023/01/26 17:08:09;;;;;;;1.37;0.70;;;7.90;99.90;;;;;;4936182;29;20205;-70
2023/01/26 17:10:36;;;;;;;7.23;0.80;;;7.90;99.90;;;;;;4936190;29;20328;-70
2023/01/26 17:13:03;;;;;;;3.17;1.00;;;7.80;99.90;;;;;;4936888;29;20220;-71
2023/01/26 17:15:30;;;;;;;7.60;1.03;;;7.90;99.90;;;;;;4936490;29;20211;-71
2023/01/26 17:17:57;;;;;;;6.17;0.90;;;7.90;99.90;;;;;;4936294;29;20675;-69
2023/01/26 17:20:26;;;;;;;3.10;0.60;;;7.90;99.90;;;;;;4936231;29;20237;-72
2023/01/26 17:22:52;;;;;;;2.73;0.70;;;7.80;99.90;;;;;;4936548;29;20213;-72
2023/01/26 17:25:19;;;;;;;3.93;1.20;;;7.80;99.90;;;;;;4935529;29;20335;-70
2023/01/26 17:27:48;;;;;;;8.77;1.20;;;7.70;99.90;;;;;;4935366;29;20544;-70
2023/01/26 17:30:16;;;;;;;4.37;0.63;;;7.70;99.90;;;;;;4936163;29;20235;-70
2023/01/26 17:32:43;;;;;;;5.80;0.90;;;7.70;99.90;;;;;;4936107;29;20204;-70
2023/01/26 17:35:10;;;;;;;3.63;1.20;;;7.80;99.90;;;;;;4935518;29;20212;-70
2023/01/26 17:37:39;;;;;;;6.33;1.27;;;7.80;99.90;;;;;;4935847;29;20211;-73
2023/01/26 17:40:07;;;;;;;4.07;1.40;;;7.80;99.90;;;;;;4935689;29;20232;-72
2023/01/26 17:42:35;;;;;;;2.23;1.00;;;7.80;99.90;;;;;;4936098;29;20216;-70
2023/01/26 17:45:02;;;;;;;7.60;1.40;;;7.70;99.90;;;;;;4935845;29;20230;-71
2023/01/26 17:47:33;;;;;;;7.83;0.77;;;7.60;99.90;;;;;;4935435;29;20219;-70
2023/01/26 17:50:00;;;;;;;6.57;0.90;;;7.50;99.90;;;;;;4936190;29;20767;-71
2023/01/26 17:52:26;;;;;;;6.93;1.57;;;7.40;99.90;;;;;;4935666;29;20216;-70
2023/01/26 17:54:54;;;;;;;4.53;1.00;;;7.40;99.90;;;;;;4933971;29;20689;-70
2023/01/26 17:57:21;;;;;;;9.10;1.07;;;7.30;99.90;;;;;;4935264;29;20213;-70
2023/01/26 17:59:48;;;;;;;6.83;1.13;;;7.10;99.90;;;;;;4939073;29;20245;-70
2023/01/26 18:02:15;;;;;;;7.20;0.90;;;7.10;99.90;;;;;;4935198;29;20209;-70
2023/01/26 18:04:42;;;;;;;5.00;1.00;;;7.00;99.90;;;;;;4936741;29;20310;-70
2023/01/26 18:07:09;;;;;;;4.47;1.00;;;6.90;99.90;;;;;;4939309;29;20296;-70
2023/01/26 18:09:36;;;;;;;2.40;0.90;;;7.00;99.90;;;;;;4934266;29;20683;-69
2023/01/26 18:12:04;;;;;;;3.37;1.17;;;7.00;99.90;;;;;;4936397;29;20221;-70
2023/01/26 18:14:31;;;;;;;8.80;1.13;;;7.00;99.90;;;;;;4935583;28;20201;-70
2023/01/26 18:16:58;;;;;;;3.87;1.10;;;7.10;99.90;;;;;;4937236;29;20259;-70
2023/01/26 18:19:24;;;;;;;4.87;1.17;;;7.10;99.90;;;;;;4937560;29;20319;-70
2023/01/26 18:21:51;;;;;;;1.83;0.90;;;7.20;99.90;;;;;;4940900;29;20591;-69
2023/01/26 18:24:18;;;;;;;7.67;1.00;;;7.30;99.90;;;;;;4938590;29;20227;-68
2023/01/26 18:26:45;;;;;;;7.87;1.07;;;7.30;99.90;;;;;;4938356;29;20204;-69
2023/01/26 18:29:13;;;;;;;4.30;0.60;;;7.30;99.90;;;;;;4938236;29;20675;-69
2023/01/26 18:31:40;;;;;;;2.80;0.70;;;7.30;99.90;;;;;;4938830;29;20209;-68
2023/01/26 18:34:08;;;;;;;8.60;0.60;;;7.30;99.90;;;;;;4938907;29;20223;-69
2023/01/26 18:36:34;;;;;;;4.33;0.83;;;7.10;99.90;;;;;;4938467;29;20212;-69
2023/01/26 18:39:06;;;;;;;4.10;1.00;;;7.10;99.90;;;;;;4950679;29;20212;-69
2023/01/26 18:41:34;;;;;;;7.40;1.00;;;7.10;99.90;;;;;;4938590;29;20215;-69
2023/01/26 18:44:02;;;;;;;7.37;1.00;;;7.10;99.90;;;;;;4938541;29;20213;-70
2023/01/26 18:46:30;;;;;;;2.87;0.73;;;7.20;99.90;;;;;;4938270;29;20240;-69
2023/01/26 18:48:59;;;;;;;5.30;0.67;;;7.20;99.90;;;;;;4938297;29;20235;-69
2023/01/26 18:51:26;;;;;;;3.30;0.83;;;7.30;99.90;;;;;;4938725;29;20240;-69
2023/01/26 18:53:53;;;;;;;2.00;0.97;;;7.30;99.90;;;;;;4938332;29;20710;-69
2023/01/26 18:56:20;;;;;;;4.53;1.27;;;7.20;99.90;;;;;;4938277;29;20687;-69
2023/01/26 18:58:47;;;;;;;4.40;1.30;;;7.30;99.90;;;;;;4938263;29;20247;-69
2023/01/26 19:01:17;;;;;;;7.47;1.10;;;7.30;99.90;;;;;;4938582;29;20233;-69
2023/01/26 19:03:46;;;;;;;6.37;1.63;;;7.30;99.90;;;;;;4938050;29;20576;-69
2023/01/26 19:06:16;;;;;;;2.20;1.00;;;7.30;99.90;;;;;;4938003;29;20762;-70
2023/01/26 19:08:45;;;;;;;5.30;1.13;;;7.30;99.90;;;;;;4938115;29;20237;-70
2023/01/26 19:11:13;;;;;;;4.13;0.70;;;7.30;99.90;;;;;;4937745;29;20221;-70
2023/01/26 19:13:42;;;;;;;4.60;1.40;;;7.30;99.90;;;;;;4938004;29;20201;-70
2023/01/26 19:16:09;;;;;;;3.17;1.00;;;7.10;99.90;;;;;;4938130;29;20209;-70
2023/01/26 19:18:36;;;;;;;5.07;1.03;;;7.10;99.90;;;;;;4937831;29;20299;-70
2023/01/26 19:21:05;;;;;;;6.90;1.20;;;7.20;99.90;;;;;;4937935;29;20228;-69
2023/01/26 19:23:32;;;;;;;7.03;1.60;;;7.20;99.90;;;;;;4937555;29;20200;-70
2023/01/26 19:25:59;;;;;;;2.43;0.90;;;7.20;99.90;;;;;;4937700;29;20330;-70
2023/01/26 19:28:26;;;;;;;8.13;1.97;;;7.10;99.90;;;;;;4938263;29;20212;-69
2023/01/26 19:31:02;;;;;;;4.90;1.50;;;7.10;99.90;;;;;;4936882;29;20229;-70
2023/01/26 19:33:30;;;;;;;5.27;1.20;;;7.20;99.90;;;;;;4937247;29;20209;-70
2023/01/26 19:35:57;;;;;;;5.20;1.17;;;7.20;99.90;;;;;;4936739;29;20560;-70
2023/01/26 19:38:25;;;;;;;3.13;0.70;;;7.00;99.90;;;;;;4937338;29;20204;-70
2023/01/26 19:40:52;;;;;;;4.07;1.10;;;7.10;99.90;;;;;;4937254;29;20239;-70
2023/01/26 19:43:20;;;;;;;4.73;1.03;;;6.90;99.90;;;;;;4937442;29;20251;-69
2023/01/26 19:45:48;;;;;;;4.80;1.20;;;6.80;99.90;;;;;;4936688;29;20244;-69
2023/01/26 19:48:15;;;;;;;4.87;1.20;;;6.90;99.90;;;;;;4944022;29;20213;-69
2023/01/26 19:50:42;;;;;;;3.13;0.70;;;7.00;99.90;;;;;;4937002;29;20240;-69
2023/01/26 19:53:08;;;;;;;1.60;0.50;;;7.00;99.90;;;;;;4937249;29;20205;-69
2023/01/26 19:55:37;;;;;;;2.00;0.70;;;6.90;99.90;;;;;;4937247;29;20208;-69
2023/01/26 19:58:03;;;;;;;2.00;0.60;;;6.80;99.90;;;;;;4937646;29;20205;-69
2023/01/26 20:00:30;;;;;;;2.57;0.70;;;6.80;99.90;;;;;;4937168;29;20221;-70
2023/01/26 20:02:57;;;;;;;6.33;1.60;;;6.80;99.90;;;;;;4937216;29;20672;-69
2023/01/26 20:05:24;;;;;;;4.47;0.90;;;6.70;99.90;;;;;;4937392;29;20243;-69
2023/01/26 20:07:50;;;;;;;3.33;0.80;;;6.80;99.90;;;;;;4937350;29;20205;-69
2023/01/26 20:10:17;;;;;;;2.73;0.90;;;6.80;99.90;;;;;;4936700;29;20235;-69
2023/01/26 20:12:45;;;;;;;5.50;0.90;;;6.70;99.90;;;;;;4937251;29;20205;-69
2023/01/26 20:15:12;;;;;;;4.40;1.10;;;6.70;99.90;;;;;;4937028;29;20213;-69
2023/01/26 20:17:41;;;;;;;2.23;0.90;;;6.80;99.90;;;;;;4937143;29;20216;-69
2023/01/26 20:20:11;;;;;;;6.53;0.90;;;6.80;99.90;;;;;;4936505;29;20565;-69
2023/01/26 20:22:37;;;;;;;5.60;1.00;;;6.90;99.90;;;;;;4936452;29;20213;-69
2023/01/26 20:25:05;;;;;;;3.73;1.10;;;6.80;99.90;;;;;;4936880;29;20231;-69
2023/01/26 20:27:33;;;;;;;4.87;1.27;;;6.80;99.90;;;;;;4936874;29;20209;-69
2023/01/26 20:30:01;;;;;;;2.23;0.70;;;6.80;99.90;;;;;;4936703;29;20232;-69
2023/01/26 20:32:28;;;;;;;7.10;0.70;;;6.80;99.90;;;;;;4936853;29;20562;-69
2023/01/26 20:34:55;;;;;;;3.17;0.87;;;6.80;99.90;;;;;;4936412;29;20205;-69
2023/01/26 20:37:21;;;;;;;3.97;1.10;;;6.90;99.90;;;;;;4936792;29;20217;-69
2023/01/26 20:39:49;;;;;;;1.10;0.40;;;6.90;99.90;;;;;;4936113;29;20239;-69
2023/01/26 20:42:17;;;;;;;7.97;0.80;;;6.80;99.90;;;;;;4936304;29;20205;-69
2023/01/26 20:44:44;;;;;;;3.53;0.70;;;6.90;99.90;;;;;;4936484;29;20205;-69
2023/01/26 20:47:12;;;;;;;4.10;0.73;;;7.00;99.90;;;;;;4936413;29;20243;-69
2023/01/26 20:49:39;;;;;;;4.70;0.90;;;7.00;99.90;;;;;;4936111;29;20237;-69
2023/01/26 20:52:06;;;;;;;3.20;0.80;;;7.00;99.90;;;;;;4935901;29;20209;-68
2023/01/26 20:54:34;;;;;;;5.63;0.80;;;7.00;99.90;;;;;;4936115;29;20208;-69
2023/01/26 20:57:02;;;;;;;4.07;0.80;;;7.00;99.90;;;;;;4936201;29;20254;-69
2023/01/26 20:59:29;;;;;;;3.83;0.97;;;7.00;99.90;;;;;;4936282;29;20292;-69
2023/01/26 21:01:56;;;;;;;4.50;0.80;;;7.00;99.90;;;;;;4936849;29;20609;-68
2023/01/26 21:04:25;;;;;;;4.53;1.07;;;7.00;99.90;;;;;;4936048;29;20222;-70
2023/01/26 21:06:54;;;;;;;6.13;0.80;;;7.00;99.90;;;;;;4936345;29;20236;-68
2023/01/26 21:09:21;;;;;;;4.60;1.17;;;7.00;99.90;;;;;;4935982;29;20225;-68
2023/01/26 21:11:48;;;;;;;4.90;1.00;;;7.00;99.90;;;;;;4936277;29;20212;-69
2023/01/26 21:14:15;;;;;;;3.83;0.90;;;7.10;99.90;;;;;;4944615;29;20215;-69
2023/01/26 21:16:42;;;;;;;3.20;0.83;;;7.20;99.90;;;;;;4939628;29;20213;-69
2023/01/26 21:19:09;;;;;;;11.10;1.13;;;7.10;99.90;;;;;;4935944;29;20205;-69
